Time;durP1;ratioP1;P1;durP2;ratioP2;P2;SDS_P1;SDS_P2;PMS_P1;PMS_P2;Temp;Humidity;BMP_temperature;BMP_pressure;BME280_temperature;BME280_humidity;BME280_pressure;Samples;Min_cycle;Max_cycle;Signal;HPM_P1;HPM_P2
2022/08/26 00:02:07;;;;;;;6.97;6.37;;;23.20;99.90;;;;;;5092039;28;20434;-39
2022/08/26 00:04:33;;;;;;;7.50;6.10;;;23.20;99.90;;;;;;5091900;28;20207;-39
2022/08/26 00:06:59;;;;;;;7.40;6.70;;;23.10;99.90;;;;;;5091454;28;20241;-42
2022/08/26 00:09:25;;;;;;;8.10;6.77;;;23.10;99.90;;;;;;5091909;28;20223;-39
2022/08/26 00:11:52;;;;;;;8.13;7.10;;;23.00;99.90;;;;;;5091875;28;20179;-38
2022/08/26 00:14:17;;;;;;;7.10;6.50;;;23.00;99.90;;;;;;5091679;28;20180;-38
2022/08/26 00:16:43;;;;;;;7.80;7.10;;;22.90;99.90;;;;;;5091151;28;20429;-38
2022/08/26 00:19:09;;;;;;;7.50;6.90;;;22.90;99.90;;;;;;5091608;28;20189;-39
2022/08/26 00:21:35;;;;;;;7.90;7.10;;;22.90;99.90;;;;;;5091678;28;20184;-40
2022/08/26 00:24:01;;;;;;;6.53;6.03;;;22.80;99.90;;;;;;5091802;28;20257;-38
2022/08/26 00:26:27;;;;;;;7.57;6.87;;;22.80;99.90;;;;;;5091898;28;20730;-39
2022/08/26 00:28:52;;;;;;;7.47;6.87;;;22.80;99.90;;;;;;5090698;28;20418;-38
2022/08/26 00:31:18;;;;;;;8.13;7.33;;;22.70;99.90;;;;;;5090186;28;20220;-40
2022/08/26 00:33:44;;;;;;;9.03;8.23;;;22.70;99.90;;;;;;5091561;28;20189;-38
2022/08/26 00:36:09;;;;;;;8.90;8.10;;;22.70;99.90;;;;;;5091496;28;20172;-39
2022/08/26 00:38:37;;;;;;;10.17;9.17;;;22.80;99.90;;;;;;5090724;28;20663;-40
2022/08/26 00:41:03;;;;;;;9.80;8.80;;;22.80;99.90;;;;;;5091495;28;20184;-41
2022/08/26 00:43:32;;;;;;;9.20;8.40;;;22.80;99.90;;;;;;5091287;28;20518;-40
2022/08/26 00:46:04;;;;;;;9.30;8.30;;;22.90;99.90;;;;;;5091340;28;20505;-44
2022/08/26 00:48:32;;;;;;;10.03;9.00;;;22.80;99.90;;;;;;5090596;28;20426;-40
2022/08/26 00:51:09;;;;;;;9.50;8.57;;;22.90;99.90;;;;;;5091270;28;21026;-38
2022/08/26 00:53:41;;;;;;;9.50;8.60;;;22.80;99.90;;;;;;5091107;28;20418;-39
2022/08/26 00:56:14;;;;;;;9.00;8.27;;;22.80;99.90;;;;;;5089475;28;20467;-38
2022/08/26 00:58:41;;;;;;;9.00;8.20;;;22.80;99.90;;;;;;5090285;28;20465;-38
2022/08/26 01:01:09;;;;;;;10.30;8.30;;;22.90;99.90;;;;;;5090979;28;20422;-38
2022/08/26 01:03:37;;;;;;;9.00;7.93;;;22.90;99.90;;;;;;5090853;28;20426;-41
2022/08/26 01:06:04;;;;;;;8.50;7.80;;;22.90;99.90;;;;;;5091028;28;20418;-39
2022/08/26 01:08:30;;;;;;;9.23;8.33;;;22.90;99.90;;;;;;5090005;28;20430;-41
2022/08/26 01:10:57;;;;;;;9.03;8.10;;;23.00;99.90;;;;;;5090624;28;20457;-39
2022/08/26 01:13:23;;;;;;;8.90;8.00;;;22.90;99.90;;;;;;5090661;28;20427;-41
2022/08/26 01:15:53;;;;;;;8.47;7.50;;;23.00;99.90;;;;;;5090664;28;20434;-44
2022/08/26 01:18:19;;;;;;;9.40;7.73;;;23.00;99.90;;;;;;5090106;28;20488;-40
2022/08/26 01:21:04;;;;;;;9.03;8.13;;;23.00;99.90;;;;;;5090382;28;20502;-40
2022/08/26 01:23:35;;;;;;;9.17;8.27;;;23.00;99.90;;;;;;5089342;28;20497;-39
2022/08/26 01:26:09;;;;;;;11.77;7.60;;;23.00;99.90;;;;;;5090349;28;20455;-41
2022/08/26 01:28:37;;;;;;;11.27;8.73;;;23.00;99.90;;;;;;5089811;28;20422;-39
2022/08/26 01:31:06;;;;;;;9.73;8.80;;;23.10;99.90;;;;;;5090119;28;21168;-39
2022/08/26 01:34:04;;;;;;;9.50;8.47;;;23.10;99.90;;;;;;5089450;28;20525;-39
2022/08/26 01:36:30;;;;;;;9.20;8.30;;;23.10;99.90;;;;;;5089741;28;20835;-39
2022/08/26 01:38:56;;;;;;;10.57;9.13;;;23.00;99.90;;;;;;5089712;28;20410;-38
2022/08/26 01:41:22;;;;;;;10.00;9.10;;;23.00;99.90;;;;;;5090058;28;20415;-38
2022/08/26 01:43:53;;;;;;;10.10;9.10;;;23.00;99.90;;;;;;5090266;28;20407;-38
2022/08/26 01:46:21;;;;;;;11.27;8.70;;;22.90;99.90;;;;;;5089975;28;20458;-39
2022/08/26 01:48:49;;;;;;;9.97;8.97;;;22.80;99.90;;;;;;5089627;28;20410;-38
2022/08/26 01:51:17;;;;;;;9.40;8.50;;;22.80;99.90;;;;;;5089919;28;21005;-40
2022/08/26 01:53:43;;;;;;;9.87;8.93;;;22.60;99.90;;;;;;5088745;28;20460;-39
2022/08/26 01:56:10;;;;;;;9.67;8.67;;;22.60;99.90;;;;;;5088227;28;20439;-39
2022/08/26 01:58:45;;;;;;;11.60;10.47;;;22.50;99.90;;;;;;5089000;28;20946;-38
2022/08/26 02:01:11;;;;;;;11.10;9.10;;;22.40;99.90;;;;;;5089719;28;20431;-42
2022/08/26 02:03:49;;;;;;;9.70;8.77;;;22.30;99.90;;;;;;5089781;28;20450;-44
2022/08/26 02:06:18;;;;;;;10.60;9.60;;;22.30;99.90;;;;;;5089773;28;20192;-41
2022/08/26 02:08:48;;;;;;;9.80;9.00;;;22.10;99.90;;;;;;5089142;28;20423;-39
2022/08/26 02:11:14;;;;;;;11.90;10.80;;;22.00;99.90;;;;;;5089140;28;20476;-39
2022/08/26 02:13:45;;;;;;;10.27;9.37;;;22.00;99.90;;;;;;5089915;28;20418;-40
2022/08/26 02:16:14;;;;;;;11.23;10.10;;;21.90;99.90;;;;;;5089459;28;20426;-38
2022/08/26 02:18:42;;;;;;;11.00;9.80;;;21.90;99.90;;;;;;5089127;28;20433;-39
2022/08/26 02:21:09;;;;;;;10.50;9.10;;;21.90;99.90;;;;;;5084223;28;20532;-38
2022/08/26 02:23:36;;;;;;;12.20;9.30;;;22.00;99.90;;;;;;5089258;28;20407;-39
2022/08/26 02:26:08;;;;;;;10.73;9.83;;;21.90;99.90;;;;;;5089470;28;20519;-39
2022/08/26 02:28:40;;;;;;;14.10;9.87;;;22.00;99.90;;;;;;5088841;28;20418;-40
2022/08/26 02:31:06;;;;;;;11.40;10.30;;;21.90;99.90;;;;;;5089355;28;20880;-38
2022/08/26 02:33:32;;;;;;;12.30;11.07;;;21.90;99.90;;;;;;5089328;28;20411;-41
2022/08/26 02:35:58;;;;;;;11.47;10.37;;;21.90;99.90;;;;;;5088959;28;20422;-38
2022/08/26 02:38:23;;;;;;;11.03;10.00;;;21.90;99.90;;;;;;5088493;28;20176;-41
2022/08/26 02:40:49;;;;;;;11.50;10.53;;;21.90;99.90;;;;;;5089084;28;20185;-39
2022/08/26 02:43:15;;;;;;;12.60;11.40;;;21.90;99.90;;;;;;5088934;28;20271;-40
2022/08/26 02:45:41;;;;;;;11.87;10.70;;;22.00;99.90;;;;;;5089153;28;20188;-39
2022/08/26 02:48:14;;;;;;;13.50;12.30;;;22.00;99.90;;;;;;5088324;28;20428;-41
2022/08/26 02:50:40;;;;;;;14.17;12.60;;;22.00;99.90;;;;;;5088478;28;20463;-39
2022/08/26 02:53:06;;;;;;;15.43;14.03;;;22.00;99.90;;;;;;5076139;28;20420;-41
2022/08/26 02:55:32;;;;;;;16.70;15.10;;;22.00;99.90;;;;;;5087239;28;20503;-39
2022/08/26 02:57:58;;;;;;;17.40;15.80;;;22.00;99.90;;;;;;5087878;28;20921;-40
2022/08/26 03:00:24;;;;;;;17.67;15.80;;;22.00;99.90;;;;;;5089034;28;20188;-41
2022/08/26 03:02:50;;;;;;;17.23;15.63;;;21.90;99.90;;;;;;5088799;28;20196;-38
2022/08/26 03:05:18;;;;;;;17.90;16.00;;;21.90;99.90;;;;;;5088640;28;20488;-40
2022/08/26 03:07:45;;;;;;;19.23;17.20;;;21.80;99.90;;;;;;5088118;28;20527;-39
2022/08/26 03:10:11;;;;;;;18.87;17.07;;;21.80;99.90;;;;;;5088673;28;20507;-41
2022/08/26 03:12:38;;;;;;;22.47;20.27;;;21.70;99.90;;;;;;5088675;28;20431;-39
2022/08/26 03:15:06;;;;;;;25.70;23.13;;;21.70;99.90;;;;;;5088932;28;20460;-42
2022/08/26 03:17:32;;;;;;;25.33;22.80;;;21.70;99.90;;;;;;5088240;28;21210;-41
2022/08/26 03:19:58;;;;;;;23.67;21.27;;;21.70;99.90;;;;;;5088446;28;20561;-38
2022/08/26 03:22:25;;;;;;;29.53;26.63;;;21.70;99.90;;;;;;5088942;28;20199;-39
2022/08/26 03:24:50;;;;;;;30.37;27.43;;;21.70;99.90;;;;;;5088883;28;20485;-44
2022/08/26 03:27:17;;;;;;;32.33;29.00;;;21.70;99.90;;;;;;5088178;28;20458;-39
2022/08/26 03:32:27;;;;;;;35.93;32.70;;;21.60;99.90;;;;;;5088569;28;20433;-39
2022/08/26 03:34:53;;;;;;;37.87;34.10;;;21.60;99.90;;;;;;5088764;28;20419;-39
2022/08/26 03:37:20;;;;;;;39.40;35.80;;;21.60;99.90;;;;;;5088023;28;20689;-40
2022/08/26 03:39:46;;;;;;;41.47;37.10;;;21.60;99.90;;;;;;5088687;28;20465;-40
2022/08/26 03:42:12;;;;;;;42.90;38.80;;;21.50;99.90;;;;;;5088735;28;20430;-41
2022/08/26 03:44:37;;;;;;;45.03;40.33;;;21.50;99.90;;;;;;5088621;28;20918;-40
2022/08/26 03:47:06;;;;;;;46.57;42.13;;;21.60;99.90;;;;;;5087859;28;20225;-39
2022/08/26 03:49:33;;;;;;;45.57;41.17;;;21.50;99.90;;;;;;5088651;28;20258;-43
2022/08/26 03:51:59;;;;;;;44.50;40.03;;;21.60;99.90;;;;;;5088720;28;20418;-43
2022/08/26 03:54:25;;;;;;;45.23;40.80;;;21.50;99.90;;;;;;5088779;28;20429;-39
2022/08/26 03:56:51;;;;;;;47.80;43.03;;;21.50;99.90;;;;;;5089272;28;20196;-40
2022/08/26 03:59:17;;;;;;;47.30;42.50;;;21.50;99.90;;;;;;5092090;28;20426;-42
2022/08/26 04:01:42;;;;;;;46.40;42.10;;;21.50;99.90;;;;;;5092011;28;20541;-44
2022/08/26 04:04:08;;;;;;;49.90;44.90;;;21.50;99.90;;;;;;5092206;28;20246;-42
2022/08/26 04:06:37;;;;;;;48.57;43.87;;;21.40;99.90;;;;;;5090188;28;20191;-38
2022/08/26 04:09:07;;;;;;;53.77;48.37;;;21.40;99.90;;;;;;5092202;28;20188;-42
2022/08/26 04:11:34;;;;;;;57.43;51.50;;;21.40;99.90;;;;;;5091798;28;20476;-40
2022/08/26 04:14:04;;;;;;;49.77;44.83;;;21.40;99.90;;;;;;5091776;28;20430;-39
2022/08/26 04:16:30;;;;;;;51.73;46.67;;;21.30;99.90;;;;;;5091841;28;20460;-42
2022/08/26 04:18:57;;;;;;;50.73;45.70;;;21.30;99.90;;;;;;5091705;28;20896;-40
2022/08/26 04:21:24;;;;;;;53.13;47.80;;;21.30;99.90;;;;;;5091556;28;20430;-40
2022/08/26 04:23:50;;;;;;;52.87;47.77;;;21.30;99.90;;;;;;5091997;28;20456;-40
2022/08/26 04:26:18;;;;;;;56.97;51.17;;;21.30;99.90;;;;;;5091637;28;20450;-39
2022/08/26 04:28:45;;;;;;;56.77;51.17;;;21.30;99.90;;;;;;5090984;28;20789;-41
2022/08/26 04:31:13;;;;;;;59.27;53.40;;;21.40;99.90;;;;;;5091519;28;20477;-40
2022/08/26 04:33:40;;;;;;;59.87;53.57;;;21.30;99.90;;;;;;5091466;28;20465;-42
2022/08/26 04:36:06;;;;;;;59.03;52.90;;;21.30;99.90;;;;;;5090182;28;20901;-39
2022/08/26 04:38:33;;;;;;;61.27;54.83;;;21.30;99.90;;;;;;5090983;28;20422;-40
2022/08/26 04:40:59;;;;;;;59.37;53.23;;;21.30;99.90;;;;;;5087854;28;20823;-39
2022/08/26 04:43:29;;;;;;;59.93;53.70;;;21.30;99.90;;;;;;5091344;28;20480;-42
2022/08/26 04:46:00;;;;;;;60.37;53.80;;;21.30;99.90;;;;;;5091378;28;20454;-39
2022/08/26 04:48:28;;;;;;;63.40;56.90;;;21.40;99.90;;;;;;5080954;28;20526;-41
2022/08/26 04:50:55;;;;;;;61.00;54.60;;;21.40;99.90;;;;;;5091202;28;20497;-39
2022/08/26 04:53:22;;;;;;;62.93;56.47;;;21.40;99.90;;;;;;5090868;28;20418;-40
2022/08/26 04:55:48;;;;;;;71.20;60.83;;;21.40;99.90;;;;;;5089524;28;20541;-41
2022/08/26 04:58:16;;;;;;;69.37;60.30;;;21.40;99.90;;;;;;5089219;28;21145;-41
2022/08/26 05:00:43;;;;;;;74.73;63.67;;;21.40;99.90;;;;;;5091208;28;20439;-40
2022/08/26 05:03:09;;;;;;;81.07;63.10;;;21.40;99.90;;;;;;5090894;28;20454;-47
2022/08/26 05:05:41;;;;;;;75.50;62.80;;;21.40;99.90;;;;;;5091025;28;20470;-40
2022/08/26 05:08:08;;;;;;;73.83;61.47;;;21.40;99.90;;;;;;5088909;28;20449;-41
2022/08/26 05:10:39;;;;;;;73.23;59.70;;;21.40;99.90;;;;;;5091212;28;20470;-41
2022/08/26 05:13:04;;;;;;;72.57;59.67;;;21.40;99.90;;;;;;5090651;28;20853;-41
2022/08/26 05:15:30;;;;;;;79.17;61.47;;;21.50;99.90;;;;;;5090875;28;20457;-40
2022/08/26 05:17:57;;;;;;;75.63;62.17;;;21.50;99.90;;;;;;5089943;28;20761;-42
2022/08/26 05:20:24;;;;;;;73.43;59.40;;;21.50;99.90;;;;;;5090721;28;20184;-42
2022/08/26 05:22:49;;;;;;;80.60;60.70;;;21.50;99.90;;;;;;5090078;28;20427;-41
2022/08/26 05:25:16;;;;;;;75.33;58.90;;;21.60;99.90;;;;;;5090650;28;20433;-42
2022/08/26 05:27:41;;;;;;;76.00;59.60;;;21.60;99.90;;;;;;5089456;28;20790;-42
2022/08/26 05:30:08;;;;;;;72.93;57.40;;;21.50;99.90;;;;;;5090368;28;20469;-40
2022/08/26 05:32:34;;;;;;;78.60;60.67;;;21.60;99.90;;;;;;5090337;28;20214;-40
2022/08/26 05:34:59;;;;;;;79.57;61.20;;;21.60;99.90;;;;;;5090417;28;20438;-41
2022/08/26 05:37:25;;;;;;;79.40;61.20;;;21.60;99.90;;;;;;5089266;28;20624;-39
2022/08/26 05:39:50;;;;;;;62.80;53.70;;;21.60;99.90;;;;;;5090248;28;20204;-41
2022/08/26 05:42:16;;;;;;;66.70;55.73;;;21.60;99.90;;;;;;5088780;28;20234;-41
2022/08/26 05:44:42;;;;;;;72.07;57.37;;;21.70;99.90;;;;;;5090270;28;20864;-40
2022/08/26 05:47:08;;;;;;;69.03;55.50;;;21.70;99.90;;;;;;5089468;28;20713;-40
2022/08/26 05:49:33;;;;;;;67.37;56.77;;;21.70;99.90;;;;;;5089989;28;20249;-40
2022/08/26 05:51:59;;;;;;;69.33;55.10;;;21.60;99.90;;;;;;5086052;28;20659;-40
2022/08/26 05:54:25;;;;;;;71.77;57.77;;;21.70;99.90;;;;;;5080348;28;20828;-39
2022/08/26 05:56:51;;;;;;;70.90;58.30;;;21.70;99.90;;;;;;5087492;28;20192;-40
2022/08/26 05:59:17;;;;;;;65.47;54.63;;;21.80;99.90;;;;;;5089796;28;20192;-42
2022/08/26 06:01:43;;;;;;;72.20;57.10;;;21.80;99.90;;;;;;5082948;28;20442;-41
2022/08/26 06:04:09;;;;;;;62.80;54.83;;;21.80;99.90;;;;;;5089722;28;20940;-41
2022/08/26 06:06:40;;;;;;;63.83;53.70;;;21.80;99.90;;;;;;5088899;28;20204;-40
2022/08/26 06:09:06;;;;;;;57.93;50.67;;;21.80;99.90;;;;;;5089516;28;20434;-40
2022/08/26 06:11:33;;;;;;;58.00;49.97;;;21.80;99.90;;;;;;5089535;28;20557;-40
2022/08/26 06:14:03;;;;;;;59.43;51.10;;;21.90;99.90;;;;;;5089642;28;20983;-41
2022/08/26 06:16:29;;;;;;;60.17;51.13;;;21.80;99.90;;;;;;5089569;28;20429;-40
2022/08/26 06:18:55;;;;;;;58.17;48.90;;;21.80;99.90;;;;;;5084377;28;20427;-42
2022/08/26 06:21:27;;;;;;;57.90;50.60;;;21.70;99.90;;;;;;5077698;28;20476;-39
2022/08/26 06:26:45;;;;;;;55.37;47.33;;;21.70;99.90;;;;;;5078155;28;20457;-40
2022/08/26 06:29:11;;;;;;;57.37;48.40;;;21.70;99.90;;;;;;5088969;28;20905;-39
2022/08/26 06:31:37;;;;;;;59.27;48.87;;;21.70;99.90;;;;;;5087179;28;20568;-39
2022/08/26 06:34:04;;;;;;;59.53;50.87;;;21.70;99.90;;;;;;5088767;28;20234;-42
2022/08/26 06:36:30;;;;;;;52.33;45.40;;;21.80;99.90;;;;;;5088827;28;20183;-40
2022/08/26 06:39:00;;;;;;;50.67;45.17;;;21.80;99.90;;;;;;5089027;28;20947;-41
2022/08/26 06:41:25;;;;;;;52.40;45.07;;;21.90;99.90;;;;;;5089154;28;20418;-39
2022/08/26 06:43:51;;;;;;;49.90;43.90;;;21.90;99.90;;;;;;5087726;28;20492;-39
2022/08/26 06:46:20;;;;;;;55.73;46.93;;;21.90;99.90;;;;;;5088915;28;20252;-39
2022/08/26 06:48:46;;;;;;;54.20;45.57;;;21.90;99.90;;;;;;5088829;28;20184;-38
2022/08/26 06:51:17;;;;;;;58.77;48.80;;;21.90;99.90;;;;;;5089061;28;20570;-38
2022/08/26 06:53:45;;;;;;;53.93;44.77;;;21.90;99.90;;;;;;5075311;28;20501;-44
2022/08/26 06:56:14;;;;;;;54.97;46.07;;;22.00;99.90;;;;;;5087575;28;20426;-41
2022/08/26 06:58:41;;;;;;;48.30;42.40;;;22.00;99.90;;;;;;5086768;28;20422;-38
2022/08/26 07:01:20;;;;;;;52.73;42.53;;;22.00;99.90;;;;;;5088331;28;20991;-41
2022/08/26 07:03:48;;;;;;;49.43;44.03;;;22.10;99.90;;;;;;5088587;28;20438;-41
2022/08/26 07:06:14;;;;;;;53.33;44.10;;;22.10;99.90;;;;;;5087392;28;20431;-39
2022/08/26 07:08:40;;;;;;;48.40;43.20;;;22.00;99.90;;;;;;5088054;28;20438;-38
2022/08/26 07:11:07;;;;;;;57.13;48.10;;;21.90;99.90;;;;;;5088521;28;20458;-40
2022/08/26 07:13:36;;;;;;;54.27;46.23;;;21.90;99.90;;;;;;5089083;28;20181;-41
2022/08/26 07:16:06;;;;;;;54.80;46.93;;;21.90;99.90;;;;;;5088900;28;20552;-41
2022/08/26 07:18:34;;;;;;;52.73;46.30;;;21.80;99.90;;;;;;5088543;28;20517;-38
2022/08/26 07:21:06;;;;;;;60.10;49.60;;;21.90;99.90;;;;;;5088998;28;20437;-39
2022/08/26 07:23:33;;;;;;;50.47;44.40;;;21.90;99.90;;;;;;5088718;28;20426;-41
2022/08/26 07:26:07;;;;;;;61.70;49.23;;;21.90;99.90;;;;;;5088929;28;20441;-42
2022/08/26 07:28:33;;;;;;;48.67;43.50;;;22.00;99.90;;;;;;5088147;28;20463;-38
2022/08/26 07:31:04;;;;;;;53.10;45.93;;;22.10;99.90;;;;;;5090653;28;20984;-41
2022/08/26 07:33:29;;;;;;;50.40;44.23;;;22.10;99.90;;;;;;5092959;28;20861;-38
2022/08/26 07:35:55;;;;;;;48.73;43.03;;;22.20;99.90;;;;;;5092421;28;20460;-39
2022/08/26 07:38:21;;;;;;;54.97;45.50;;;22.20;99.90;;;;;;5091662;28;20195;-43
2022/08/26 07:40:47;;;;;;;55.20;45.90;;;22.20;99.90;;;;;;5091062;28;20264;-41
2022/08/26 07:43:12;;;;;;;49.20;42.97;;;22.30;99.90;;;;;;5091925;28;20655;-41
2022/08/26 07:45:38;;;;;;;52.70;46.80;;;22.30;99.90;;;;;;5092092;28;20199;-38
2022/08/26 07:48:04;;;;;;;54.17;46.70;;;22.30;99.90;;;;;;5091383;28;20279;-40
2022/08/26 07:50:31;;;;;;;51.17;45.77;;;22.20;99.90;;;;;;5091526;28;20216;-38
2022/08/26 07:52:56;;;;;;;53.20;46.20;;;22.30;99.90;;;;;;5080024;28;20415;-41
2022/08/26 07:55:22;;;;;;;50.83;45.43;;;22.20;99.90;;;;;;5090481;28;20452;-39
2022/08/26 07:57:48;;;;;;;48.10;43.10;;;22.20;99.90;;;;;;5089628;28;20188;-39
2022/08/26 08:00:15;;;;;;;50.23;44.73;;;22.30;99.90;;;;;;5091873;28;20330;-38
2022/08/26 08:02:43;;;;;;;46.67;41.83;;;22.30;99.90;;;;;;5091963;28;20434;-39
2022/08/26 08:05:10;;;;;;;49.07;43.77;;;22.30;99.90;;;;;;5091573;28;20450;-42
2022/08/26 08:07:37;;;;;;;50.87;45.30;;;22.30;99.90;;;;;;5091096;28;20477;-40
2022/08/26 08:10:04;;;;;;;49.37;44.10;;;22.30;99.90;;;;;;5091706;28;20462;-38
2022/08/26 08:12:29;;;;;;;47.50;41.53;;;22.30;99.90;;;;;;5091518;28;20418;-39
2022/08/26 08:14:55;;;;;;;44.90;40.20;;;22.40;99.90;;;;;;5090278;28;20838;-40
2022/08/26 08:17:21;;;;;;;46.57;41.77;;;22.30;99.90;;;;;;5089603;28;20188;-42
2022/08/26 08:19:46;;;;;;;43.20;38.60;;;22.30;99.90;;;;;;5091200;28;20566;-41
2022/08/26 08:22:16;;;;;;;46.13;40.40;;;22.30;99.90;;;;;;5091485;28;20228;-42
2022/08/26 08:24:42;;;;;;;44.07;39.10;;;22.40;99.90;;;;;;5091390;28;20195;-40
2022/08/26 08:27:08;;;;;;;46.07;41.17;;;22.30;99.90;;;;;;5091179;28;20426;-39
2022/08/26 08:29:36;;;;;;;41.20;37.10;;;22.40;99.90;;;;;;5091302;28;20647;-40
2022/08/26 08:32:03;;;;;;;43.37;38.97;;;22.30;99.90;;;;;;5091750;28;20275;-39
2022/08/26 08:34:30;;;;;;;39.13;35.30;;;22.30;99.90;;;;;;5091125;28;20795;-41
2022/08/26 08:36:56;;;;;;;43.40;38.27;;;22.40;99.90;;;;;;5090810;28;20433;-39
2022/08/26 08:39:23;;;;;;;44.30;40.00;;;22.40;99.90;;;;;;5091204;28;20523;-41
2022/08/26 08:42:14;;;;;;;44.90;40.20;;;22.40;99.90;;;;;;5091051;28;20526;-39
2022/08/26 08:44:44;;;;;;;40.33;35.90;;;22.30;99.90;;;;;;5091044;28;20422;-39
2022/08/26 08:47:34;;;;;;;41.50;37.23;;;22.30;99.90;;;;;;5090434;28;20469;-38
2022/08/26 08:50:09;;;;;;;38.00;34.20;;;22.30;99.90;;;;;;5091146;28;20837;-40
2022/08/26 08:52:35;;;;;;;39.37;35.30;;;22.30;99.90;;;;;;5091005;28;20464;-41
2022/08/26 08:55:04;;;;;;;37.47;33.67;;;22.40;99.90;;;;;;5090990;28;20429;-40
2022/08/26 08:57:54;;;;;;;38.80;34.87;;;22.40;99.90;;;;;;5088916;28;20529;-42
2022/08/26 09:00:23;;;;;;;39.00;34.80;;;22.40;99.90;;;;;;5090918;28;20540;-38
2022/08/26 09:02:58;;;;;;;35.73;32.10;;;22.40;99.90;;;;;;5091058;28;20431;-40
2022/08/26 09:05:38;;;;;;;39.50;35.47;;;22.50;99.90;;;;;;5090842;28;20814;-38
2022/08/26 09:08:09;;;;;;;41.73;37.13;;;22.50;99.90;;;;;;5089972;28;20430;-38
2022/08/26 09:10:44;;;;;;;42.20;37.80;;;22.60;99.90;;;;;;5090704;28;20507;-39
2022/08/26 09:13:13;;;;;;;39.13;35.07;;;22.60;99.90;;;;;;5090845;28;20981;-39
2022/08/26 09:16:00;;;;;;;37.03;33.00;;;22.60;99.90;;;;;;5089407;28;20433;-38
2022/08/26 09:18:56;;;;;;;36.37;32.87;;;22.60;99.90;;;;;;5090003;28;20422;-39
2022/08/26 09:21:23;;;;;;;33.83;30.50;;;22.60;99.90;;;;;;5089691;28;20438;-40
2022/08/26 09:23:50;;;;;;;39.37;35.10;;;22.60;99.90;;;;;;5090549;28;20453;-40
2022/08/26 09:26:26;;;;;;;37.60;33.67;;;22.70;99.90;;;;;;5089161;28;20426;-40
2022/08/26 09:28:58;;;;;;;39.17;35.07;;;22.70;99.90;;;;;;5089762;28;20445;-39
2022/08/26 09:31:26;;;;;;;44.87;40.50;;;22.70;99.90;;;;;;5090186;28;20466;-38
2022/08/26 09:34:10;;;;;;;40.57;36.50;;;22.80;99.90;;;;;;5090402;28;20419;-40
2022/08/26 09:36:56;;;;;;;40.23;35.93;;;22.70;99.90;;;;;;5089593;28;20962;-40
2022/08/26 09:39:33;;;;;;;38.00;34.20;;;22.70;99.90;;;;;;5075873;28;20499;-40
2022/08/26 09:42:04;;;;;;;40.43;36.40;;;22.70;99.90;;;;;;5088740;28;20426;-40
2022/08/26 09:44:30;;;;;;;37.17;33.17;;;22.70;99.90;;;;;;5090249;28;20847;-38
2022/08/26 09:47:04;;;;;;;38.80;34.87;;;22.70;99.90;;;;;;5089534;28;20426;-40
2022/08/26 09:49:31;;;;;;;38.77;34.57;;;22.70;99.90;;;;;;5089842;28;20853;-39
2022/08/26 09:52:21;;;;;;;38.73;34.83;;;22.70;99.90;;;;;;5089623;28;20450;-40
2022/08/26 09:55:00;;;;;;;35.67;32.03;;;22.70;99.90;;;;;;5088226;28;20426;-39
2022/08/26 09:57:34;;;;;;;38.50;33.67;;;22.80;99.90;;;;;;5088394;28;20436;-39
2022/08/26 10:00:00;;;;;;;34.13;30.63;;;22.90;99.90;;;;;;5089762;28;20418;-41
2022/08/26 10:02:37;;;;;;;39.53;34.97;;;22.90;99.90;;;;;;5088643;28;20817;-39
2022/08/26 10:05:07;;;;;;;36.33;31.07;;;22.90;99.90;;;;;;5089966;28;20445;-42
2022/08/26 10:07:49;;;;;;;33.57;30.20;;;22.90;99.90;;;;;;5089179;28;20446;-41
2022/08/26 10:10:28;;;;;;;40.40;36.30;;;23.00;99.90;;;;;;5089380;28;20806;-41
2022/08/26 10:13:12;;;;;;;38.57;34.47;;;23.10;99.90;;;;;;5089557;28;20423;-39
2022/08/26 10:15:44;;;;;;;40.17;36.17;;;23.10;99.90;;;;;;5089775;28;20415;-39
2022/08/26 10:18:26;;;;;;;41.20;37.00;;;23.20;99.90;;;;;;5089031;28;20538;-39
2022/08/26 10:21:01;;;;;;;37.37;33.70;;;23.20;99.90;;;;;;5089429;28;20464;-39
2022/08/26 10:23:31;;;;;;;45.70;41.00;;;23.20;99.90;;;;;;5089538;28;20440;-39
2022/08/26 10:26:14;;;;;;;40.43;36.27;;;23.20;99.90;;;;;;5089578;28;20426;-38
2022/08/26 10:28:55;;;;;;;35.30;31.90;;;23.20;99.90;;;;;;5088834;28;20451;-40
2022/08/26 10:31:26;;;;;;;36.63;32.77;;;23.30;99.90;;;;;;5088028;28;20476;-41
2022/08/26 10:33:53;;;;;;;32.77;29.37;;;23.30;99.90;;;;;;5089459;28;20431;-39
2022/08/26 10:39:16;;;;;;;29.27;26.30;;;23.30;99.90;;;;;;5089207;28;20410;-40
2022/08/26 10:41:46;;;;;;;30.00;27.10;;;23.30;99.90;;;;;;5087859;28;20430;-39
2022/08/26 10:44:16;;;;;;;29.10;26.27;;;23.30;99.90;;;;;;5087992;28;20422;-39
2022/08/26 10:46:57;;;;;;;29.57;26.67;;;23.30;99.90;;;;;;5088629;28;20780;-39
2022/08/26 10:49:23;;;;;;;27.07;24.23;;;23.30;99.90;;;;;;5089363;28;20414;-40
2022/08/26 10:52:03;;;;;;;22.10;20.10;;;23.20;99.90;;;;;;5088919;28;20548;-38
2022/08/26 10:54:42;;;;;;;22.53;20.40;;;23.30;99.90;;;;;;5089611;28;20446;-41
2022/08/26 10:57:19;;;;;;;18.63;16.70;;;23.20;99.90;;;;;;5065978;28;20480;-40
2022/08/26 11:03:07;;;;;;;21.77;19.53;;;23.10;99.90;;;;;;5088826;28;20433;-40
2022/08/26 11:05:33;;;;;;;20.00;18.20;;;23.10;99.90;;;;;;5090085;28;21042;-38
2022/08/26 11:08:20;;;;;;;23.07;20.57;;;23.10;99.90;;;;;;5092259;28;20493;-39
2022/08/26 11:10:55;;;;;;;23.10;20.77;;;23.10;99.90;;;;;;5092771;28;20228;-41
2022/08/26 11:14:00;;;;;;;21.93;19.80;;;23.10;99.90;;;;;;5092854;28;20424;-38
2022/08/26 11:16:39;;;;;;;21.57;19.47;;;23.10;99.90;;;;;;5093210;28;20422;-41
2022/08/26 11:19:08;;;;;;;21.53;19.43;;;23.20;99.90;;;;;;5092694;28;20497;-39
2022/08/26 11:22:04;;;;;;;25.33;22.80;;;23.20;99.90;;;;;;5093018;28;20608;-39
2022/08/26 11:24:39;;;;;;;23.30;20.97;;;23.20;99.90;;;;;;5092787;28;20436;-40
2022/08/26 11:27:22;;;;;;;29.37;26.17;;;23.10;99.90;;;;;;5092165;28;20510;-38
2022/08/26 11:30:12;;;;;;;32.40;29.00;;;23.10;99.90;;;;;;5092602;28;20433;-39
2022/08/26 11:32:38;;;;;;;31.00;28.30;;;23.20;99.90;;;;;;5092598;28;20769;-39
2022/08/26 11:35:07;;;;;;;28.63;25.83;;;23.10;99.90;;;;;;5092698;28;20410;-38
2022/08/26 11:37:46;;;;;;;28.23;25.53;;;23.20;99.90;;;;;;5091943;28;20188;-38
2022/08/26 11:40:16;;;;;;;25.90;23.50;;;23.20;99.90;;;;;;5092780;28;20425;-43
2022/08/26 11:42:48;;;;;;;23.67;21.40;;;23.20;99.90;;;;;;5092601;28;20421;-42
2022/08/26 11:45:26;;;;;;;20.10;18.40;;;23.30;99.90;;;;;;5092674;28;20739;-38
2022/08/26 11:47:53;;;;;;;21.87;19.97;;;23.30;99.90;;;;;;5091835;28;20940;-39
2022/08/26 11:50:25;;;;;;;23.07;20.80;;;23.40;99.90;;;;;;5092127;28;20925;-38
2022/08/26 11:53:03;;;;;;;22.70;20.63;;;23.40;99.90;;;;;;5092419;28;20411;-38
2022/08/26 11:55:34;;;;;;;21.27;19.30;;;23.40;99.90;;;;;;5092318;28;20422;-41
2022/08/26 11:58:03;;;;;;;19.13;17.43;;;23.40;99.90;;;;;;5091558;28;20426;-41
2022/08/26 12:00:46;;;;;;;18.20;16.33;;;23.50;99.90;;;;;;5092183;28;20444;-39
2022/08/26 12:03:21;;;;;;;21.60;17.43;;;23.50;99.90;;;;;;5092174;28;20426;-40
2022/08/26 12:05:50;;;;;;;19.27;17.40;;;23.50;99.90;;;;;;5092133;28;20512;-38
2022/08/26 12:08:20;;;;;;;18.57;16.67;;;23.50;99.90;;;;;;5091461;28;20422;-40
2022/08/26 12:10:47;;;;;;;15.23;13.93;;;23.50;99.90;;;;;;5091980;28;20446;-38
2022/08/26 12:13:23;;;;;;;21.10;16.40;;;23.50;99.90;;;;;;5091648;28;20475;-41
2022/08/26 12:15:58;;;;;;;18.63;16.73;;;23.60;99.90;;;;;;5091897;28;20430;-39
2022/08/26 12:18:36;;;;;;;18.43;15.90;;;23.60;99.90;;;;;;5091348;28;20418;-38
2022/08/26 12:21:17;;;;;;;19.57;17.53;;;23.60;99.90;;;;;;5091790;28;20430;-39
2022/08/26 12:23:45;;;;;;;16.40;14.87;;;23.50;99.90;;;;;;5091532;28;20422;-42
2022/08/26 12:26:29;;;;;;;14.67;13.37;;;23.50;99.90;;;;;;5091920;28;20773;-38
2022/08/26 12:29:17;;;;;;;17.00;14.60;;;23.60;99.90;;;;;;5091290;28;20423;-43
2022/08/26 12:31:43;;;;;;;17.00;15.30;;;23.60;99.90;;;;;;5089129;28;20984;-38
2022/08/26 12:34:17;;;;;;;17.63;16.00;;;23.70;99.90;;;;;;5073273;28;20434;-39
2022/08/26 12:36:55;;;;;;;15.87;14.50;;;23.70;99.90;;;;;;5091019;28;20734;-39
2022/08/26 12:39:27;;;;;;;17.97;16.20;;;23.70;99.90;;;;;;5091708;28;20511;-39
2022/08/26 12:41:59;;;;;;;16.17;14.77;;;23.80;99.90;;;;;;5091341;28;20422;-39
2022/08/26 12:44:45;;;;;;;14.60;13.10;;;23.80;99.90;;;;;;5091111;28;20411;-42
2022/08/26 12:47:22;;;;;;;13.27;12.00;;;23.90;99.90;;;;;;5090709;28;20429;-41
2022/08/26 12:49:57;;;;;;;14.67;13.33;;;23.90;99.90;;;;;;5091183;28;20423;-41
2022/08/26 12:52:31;;;;;;;12.70;11.70;;;23.90;99.90;;;;;;5091140;28;20418;-39
2022/08/26 12:55:03;;;;;;;13.70;12.50;;;23.90;99.90;;;;;;5091140;28;20472;-44
2022/08/26 12:57:35;;;;;;;14.67;13.20;;;23.90;99.90;;;;;;5089320;28;20936;-41